sensor_id;sensor_type;location;lat;lon;timestamp;P1;durP1;ratioP1;P2;durP2;ratioP2
11839;SDS011;5979;50.800;4.904;2023-09-19T00:00:22;8.32;;;2.75;;
11839;SDS011;5979;50.800;4.904;2023-09-19T00:02:55;6.88;;;2.25;;
11839;SDS011;5979;50.800;4.904;2023-09-19T00:05:22;4.20;;;2.33;;
11839;SDS011;5979;50.800;4.904;2023-09-19T00:07:52;4.68;;;2.65;;
11839;SDS011;5979;50.800;4.904;2023-09-19T00:10:22;10.75;;;3.20;;
11839;SDS011;5979;50.800;4.904;2023-09-19T00:12:54;9.32;;;3.08;;
11839;SDS011;5979;50.800;4.904;2023-09-19T00:15:20;4.75;;;2.45;;
11839;SDS011;5979;50.800;4.904;2023-09-19T00:17:47;6.05;;;2.67;;
11839;SDS011;5979;50.800;4.904;2023-09-19T00:20:13;8.00;;;2.47;;
11839;SDS011;5979;50.800;4.904;2023-09-19T00:22:42;6.72;;;2.40;;
11839;SDS011;5979;50.800;4.904;2023-09-19T00:25:08;6.03;;;2.13;;
11839;SDS011;5979;50.800;4.904;2023-09-19T00:27:38;7.28;;;2.75;;
11839;SDS011;5979;50.800;4.904;2023-09-19T00:30:07;6.05;;;2.42;;
11839;SDS011;5979;50.800;4.904;2023-09-19T00:32:39;9.20;;;2.40;;
11839;SDS011;5979;50.800;4.904;2023-09-19T00:35:05;7.18;;;2.45;;
11839;SDS011;5979;50.800;4.904;2023-09-19T00:37:32;5.75;;;2.50;;
11839;SDS011;5979;50.800;4.904;2023-09-19T00:39:59;4.03;;;1.90;;
11839;SDS011;5979;50.800;4.904;2023-09-19T00:42:24;4.65;;;2.20;;
11839;SDS011;5979;50.800;4.904;2023-09-19T00:44:50;4.97;;;2.10;;
11839;SDS011;5979;50.800;4.904;2023-09-19T00:47:17;4.22;;;2.00;;
11839;SDS011;5979;50.800;4.904;2023-09-19T00:49:46;9.20;;;2.80;;
11839;SDS011;5979;50.800;4.904;2023-09-19T00:52:15;7.25;;;2.40;;
11839;SDS011;5979;50.800;4.904;2023-09-19T00:54:46;7.18;;;2.33;;
11839;SDS011;5979;50.800;4.904;2023-09-19T00:57:12;6.00;;;2.50;;
11839;SDS011;5979;50.800;4.904;2023-09-19T00:59:39;7.88;;;2.97;;
11839;SDS011;5979;50.800;4.904;2023-09-19T01:02:06;7.43;;;2.60;;
11839;SDS011;5979;50.800;4.904;2023-09-19T01:04:33;4.57;;;2.53;;
11839;SDS011;5979;50.800;4.904;2023-09-19T01:06:59;7.10;;;2.42;;
11839;SDS011;5979;50.800;4.904;2023-09-19T01:09:24;8.80;;;2.40;;
11839;SDS011;5979;50.800;4.904;2023-09-19T01:11:52;4.82;;;2.50;;
11839;SDS011;5979;50.800;4.904;2023-09-19T01:17:30;5.00;;;2.63;;
11839;SDS011;5979;50.800;4.904;2023-09-19T01:20:49;7.05;;;2.97;;
11839;SDS011;5979;50.800;4.904;2023-09-19T01:31:19;5.70;;;2.53;;
11839;SDS011;5979;50.800;4.904;2023-09-19T01:33:53;2.97;;;2.10;;
11839;SDS011;5979;50.800;4.904;2023-09-19T01:36:22;8.20;;;2.63;;
11839;SDS011;5979;50.800;4.904;2023-09-19T01:38:49;7.22;;;2.47;;
11839;SDS011;5979;50.800;4.904;2023-09-19T01:41:17;6.28;;;2.60;;
11839;SDS011;5979;50.800;4.904;2023-09-19T01:43:59;6.82;;;2.65;;
11839;SDS011;5979;50.800;4.904;2023-09-19T01:46:35;6.72;;;2.78;;
11839;SDS011;5979;50.800;4.904;2023-09-19T01:54:32;6.00;;;2.58;;
11839;SDS011;5979;50.800;4.904;2023-09-19T01:57:05;7.10;;;2.70;;
11839;SDS011;5979;50.800;4.904;2023-09-19T01:59:43;6.63;;;2.30;;
11839;SDS011;5979;50.800;4.904;2023-09-19T02:02:13;4.38;;;2.47;;
11839;SDS011;5979;50.800;4.904;2023-09-19T02:04:42;4.95;;;2.50;;
11839;SDS011;5979;50.800;4.904;2023-09-19T02:07:08;4.63;;;2.72;;
11839;SDS011;5979;50.800;4.904;2023-09-19T02:09:34;5.53;;;2.72;;
11839;SDS011;5979;50.800;4.904;2023-09-19T02:12:00;9.52;;;3.05;;
11839;SDS011;5979;50.800;4.904;2023-09-19T02:14:28;10.63;;;3.20;;
11839;SDS011;5979;50.800;4.904;2023-09-19T02:16:54;6.30;;;2.40;;
11839;SDS011;5979;50.800;4.904;2023-09-19T02:19:21;6.40;;;2.63;;
11839;SDS011;5979;50.800;4.904;2023-09-19T02:21:47;8.18;;;3.05;;
11839;SDS011;5979;50.800;4.904;2023-09-19T02:24:14;6.57;;;3.33;;
11839;SDS011;5979;50.800;4.904;2023-09-19T02:26:40;8.07;;;2.42;;
11839;SDS011;5979;50.800;4.904;2023-09-19T02:29:06;6.15;;;2.70;;
11839;SDS011;5979;50.800;4.904;2023-09-19T02:31:31;9.57;;;3.20;;
11839;SDS011;5979;50.800;4.904;2023-09-19T02:33:57;5.93;;;2.67;;
11839;SDS011;5979;50.800;4.904;2023-09-19T02:36:23;7.28;;;3.17;;
11839;SDS011;5979;50.800;4.904;2023-09-19T02:38:49;8.10;;;3.22;;
11839;SDS011;5979;50.800;4.904;2023-09-19T02:41:14;7.68;;;3.03;;
11839;SDS011;5979;50.800;4.904;2023-09-19T02:43:40;5.10;;;2.85;;
11839;SDS011;5979;50.800;4.904;2023-09-19T02:46:08;6.15;;;2.78;;
11839;SDS011;5979;50.800;4.904;2023-09-19T02:48:34;4.55;;;2.72;;
11839;SDS011;5979;50.800;4.904;2023-09-19T02:51:00;6.85;;;2.50;;
11839;SDS011;5979;50.800;4.904;2023-09-19T02:53:26;8.38;;;2.97;;
11839;SDS011;5979;50.800;4.904;2023-09-19T02:55:52;7.20;;;3.00;;
11839;SDS011;5979;50.800;4.904;2023-09-19T02:58:18;8.10;;;2.22;;
11839;SDS011;5979;50.800;4.904;2023-09-19T03:00:44;6.95;;;2.47;;
11839;SDS011;5979;50.800;4.904;2023-09-19T03:03:15;6.72;;;2.38;;
11839;SDS011;5979;50.800;4.904;2023-09-19T03:05:43;6.63;;;2.45;;
11839;SDS011;5979;50.800;4.904;2023-09-19T03:08:13;7.50;;;2.97;;
11839;SDS011;5979;50.800;4.904;2023-09-19T03:10:42;8.05;;;3.30;;
11839;SDS011;5979;50.800;4.904;2023-09-19T03:13:07;5.85;;;2.20;;
11839;SDS011;5979;50.800;4.904;2023-09-19T03:15:41;7.43;;;2.97;;
11839;SDS011;5979;50.800;4.904;2023-09-19T03:18:09;8.23;;;2.70;;
11839;SDS011;5979;50.800;4.904;2023-09-19T03:20:35;8.15;;;3.30;;
11839;SDS011;5979;50.800;4.904;2023-09-19T03:23:01;11.05;;;3.40;;
11839;SDS011;5979;50.800;4.904;2023-09-19T03:25:27;9.52;;;2.65;;
11839;SDS011;5979;50.800;4.904;2023-09-19T03:27:55;10.48;;;2.92;;
11839;SDS011;5979;50.800;4.904;2023-09-19T03:30:23;10.10;;;3.10;;
11839;SDS011;5979;50.800;4.904;2023-09-19T03:32:48;7.18;;;2.80;;
11839;SDS011;5979;50.800;4.904;2023-09-19T03:35:15;5.68;;;2.20;;
11839;SDS011;5979;50.800;4.904;2023-09-19T03:37:41;8.15;;;2.97;;
11839;SDS011;5979;50.800;4.904;2023-09-19T03:40:08;8.43;;;3.13;;
11839;SDS011;5979;50.800;4.904;2023-09-19T03:42:37;7.75;;;2.17;;
11839;SDS011;5979;50.800;4.904;2023-09-19T03:45:09;8.35;;;3.08;;
11839;SDS011;5979;50.800;4.904;2023-09-19T03:47:37;4.75;;;2.17;;
11839;SDS011;5979;50.800;4.904;2023-09-19T03:50:04;6.82;;;2.53;;
11839;SDS011;5979;50.800;4.904;2023-09-19T03:52:32;6.88;;;2.67;;
11839;SDS011;5979;50.800;4.904;2023-09-19T03:54:58;8.15;;;3.30;;
11839;SDS011;5979;50.800;4.904;2023-09-19T03:57:23;4.88;;;2.28;;
11839;SDS011;5979;50.800;4.904;2023-09-19T03:59:49;7.90;;;2.63;;
11839;SDS011;5979;50.800;4.904;2023-09-19T04:02:15;5.88;;;2.40;;
11839;SDS011;5979;50.800;4.904;2023-09-19T04:04:50;6.40;;;3.15;;
11839;SDS011;5979;50.800;4.904;2023-09-19T04:07:17;6.00;;;2.53;;
11839;SDS011;5979;50.800;4.904;2023-09-19T04:09:44;6.22;;;2.55;;
11839;SDS011;5979;50.800;4.904;2023-09-19T04:12:10;9.73;;;2.50;;
11839;SDS011;5979;50.800;4.904;2023-09-19T04:14:37;4.47;;;2.17;;
11839;SDS011;5979;50.800;4.904;2023-09-19T04:17:03;7.88;;;2.75;;
11839;SDS011;5979;50.800;4.904;2023-09-19T04:19:30;3.45;;;2.00;;
11839;SDS011;5979;50.800;4.904;2023-09-19T04:21:56;8.77;;;2.92;;
11839;SDS011;5979;50.800;4.904;2023-09-19T04:24:22;4.57;;;2.25;;
11839;SDS011;5979;50.800;4.904;2023-09-19T04:26:47;6.50;;;2.30;;
11839;SDS011;5979;50.800;4.904;2023-09-19T04:29:13;7.35;;;2.55;;
11839;SDS011;5979;50.800;4.904;2023-09-19T04:31:39;11.88;;;2.78;;
11839;SDS011;5979;50.800;4.904;2023-09-19T04:34:05;7.50;;;2.42;;
11839;SDS011;5979;50.800;4.904;2023-09-19T04:36:32;9.88;;;2.83;;
11839;SDS011;5979;50.800;4.904;2023-09-19T04:38:58;8.63;;;2.42;;
11839;SDS011;5979;50.800;4.904;2023-09-19T04:41:24;5.45;;;2.33;;
11839;SDS011;5979;50.800;4.904;2023-09-19T04:43:49;4.88;;;2.60;;
11839;SDS011;5979;50.800;4.904;2023-09-19T04:46:16;5.13;;;2.08;;
11839;SDS011;5979;50.800;4.904;2023-09-19T04:48:42;7.20;;;2.50;;
11839;SDS011;5979;50.800;4.904;2023-09-19T04:51:08;10.65;;;2.83;;
11839;SDS011;5979;50.800;4.904;2023-09-19T04:53:35;5.95;;;2.10;;
11839;SDS011;5979;50.800;4.904;2023-09-19T04:56:01;5.82;;;2.50;;
11839;SDS011;5979;50.800;4.904;2023-09-19T04:58:28;11.52;;;2.85;;
11839;SDS011;5979;50.800;4.904;2023-09-19T05:00:54;5.78;;;2.25;;
11839;SDS011;5979;50.800;4.904;2023-09-19T05:03:21;6.70;;;2.65;;
11839;SDS011;5979;50.800;4.904;2023-09-19T05:05:47;7.40;;;2.60;;
11839;SDS011;5979;50.800;4.904;2023-09-19T05:08:13;5.57;;;2.33;;
11839;SDS011;5979;50.800;4.904;2023-09-19T05:10:40;6.05;;;2.28;;
11839;SDS011;5979;50.800;4.904;2023-09-19T05:13:06;6.38;;;1.95;;
11839;SDS011;5979;50.800;4.904;2023-09-19T05:15:33;8.13;;;2.45;;
11839;SDS011;5979;50.800;4.904;2023-09-19T05:17:58;5.35;;;2.45;;
11839;SDS011;5979;50.800;4.904;2023-09-19T05:20:24;9.68;;;2.92;;
11839;SDS011;5979;50.800;4.904;2023-09-19T05:23:03;10.98;;;2.60;;
11839;SDS011;5979;50.800;4.904;2023-09-19T05:25:36;6.75;;;2.53;;
11839;SDS011;5979;50.800;4.904;2023-09-19T05:28:07;5.50;;;2.40;;
11839;SDS011;5979;50.800;4.904;2023-09-19T05:30:34;5.13;;;2.15;;
11839;SDS011;5979;50.800;4.904;2023-09-19T05:33:03;5.70;;;2.45;;
11839;SDS011;5979;50.800;4.904;2023-09-19T05:35:30;7.13;;;2.25;;
11839;SDS011;5979;50.800;4.904;2023-09-19T05:37:56;6.95;;;2.70;;
11839;SDS011;5979;50.800;4.904;2023-09-19T05:40:23;11.55;;;2.78;;
11839;SDS011;5979;50.800;4.904;2023-09-19T05:42:50;7.35;;;2.75;;
11839;SDS011;5979;50.800;4.904;2023-09-19T05:45:16;5.78;;;2.55;;
11839;SDS011;5979;50.800;4.904;2023-09-19T05:47:49;5.93;;;2.28;;
11839;SDS011;5979;50.800;4.904;2023-09-19T05:50:16;6.03;;;2.88;;
11839;SDS011;5979;50.800;4.904;2023-09-19T05:52:43;4.85;;;2.40;;
11839;SDS011;5979;50.800;4.904;2023-09-19T05:55:17;6.80;;;2.35;;
11839;SDS011;5979;50.800;4.904;2023-09-19T05:57:43;8.23;;;2.50;;
11839;SDS011;5979;50.800;4.904;2023-09-19T06:00:08;5.30;;;2.38;;
11839;SDS011;5979;50.800;4.904;2023-09-19T06:02:38;4.68;;;2.53;;
11839;SDS011;5979;50.800;4.904;2023-09-19T06:05:05;5.40;;;2.13;;
11839;SDS011;5979;50.800;4.904;2023-09-19T06:07:32;11.18;;;2.65;;
11839;SDS011;5979;50.800;4.904;2023-09-19T06:10:04;4.95;;;2.30;;
11839;SDS011;5979;50.800;4.904;2023-09-19T06:12:31;8.48;;;2.28;;
11839;SDS011;5979;50.800;4.904;2023-09-19T06:15:02;10.18;;;2.67;;
11839;SDS011;5979;50.800;4.904;2023-09-19T06:17:33;6.78;;;2.47;;
11839;SDS011;5979;50.800;4.904;2023-09-19T06:20:02;7.65;;;2.17;;
11839;SDS011;5979;50.800;4.904;2023-09-19T06:22:43;4.55;;;2.00;;
11839;SDS011;5979;50.800;4.904;2023-09-19T06:25:10;7.63;;;2.40;;
11839;SDS011;5979;50.800;4.904;2023-09-19T06:27:38;7.03;;;2.25;;
11839;SDS011;5979;50.800;4.904;2023-09-19T06:30:08;7.32;;;2.17;;
11839;SDS011;5979;50.800;4.904;2023-09-19T06:32:34;9.68;;;2.47;;
11839;SDS011;5979;50.800;4.904;2023-09-19T06:35:00;8.10;;;2.88;;
11839;SDS011;5979;50.800;4.904;2023-09-19T06:37:29;8.43;;;2.40;;
11839;SDS011;5979;50.800;4.904;2023-09-19T06:39:55;8.60;;;2.40;;
11839;SDS011;5979;50.800;4.904;2023-09-19T06:42:22;5.65;;;2.15;;
11839;SDS011;5979;50.800;4.904;2023-09-19T06:44:48;7.35;;;2.28;;
11839;SDS011;5979;50.800;4.904;2023-09-19T06:47:14;5.32;;;1.95;;
11839;SDS011;5979;50.800;4.904;2023-09-19T06:49:41;6.25;;;2.67;;
11839;SDS011;5979;50.800;4.904;2023-09-19T06:52:09;4.38;;;2.15;;
11839;SDS011;5979;50.800;4.904;2023-09-19T06:54:35;5.72;;;2.40;;
11839;SDS011;5979;50.800;4.904;2023-09-19T06:57:01;7.43;;;2.47;;
11839;SDS011;5979;50.800;4.904;2023-09-19T06:59:27;6.75;;;2.50;;
11839;SDS011;5979;50.800;4.904;2023-09-19T07:01:52;9.73;;;2.30;;
11839;SDS011;5979;50.800;4.904;2023-09-19T07:04:18;7.60;;;2.40;;
11839;SDS011;5979;50.800;4.904;2023-09-19T07:06:50;5.25;;;2.22;;
11839;SDS011;5979;50.800;4.904;2023-09-19T07:09:16;3.65;;;2.13;;
11839;SDS011;5979;50.800;4.904;2023-09-19T07:11:42;5.22;;;2.38;;
11839;SDS011;5979;50.800;4.904;2023-09-19T07:14:08;5.05;;;2.22;;
11839;SDS011;5979;50.800;4.904;2023-09-19T07:16:36;5.85;;;2.30;;
11839;SDS011;5979;50.800;4.904;2023-09-19T07:19:04;4.22;;;2.00;;
11839;SDS011;5979;50.800;4.904;2023-09-19T07:21:30;8.50;;;2.40;;
11839;SDS011;5979;50.800;4.904;2023-09-19T07:23:59;10.13;;;2.40;;
11839;SDS011;5979;50.800;4.904;2023-09-19T07:26:26;4.03;;;2.17;;
11839;SDS011;5979;50.800;4.904;2023-09-19T07:28:53;6.82;;;2.42;;
11839;SDS011;5979;50.800;4.904;2023-09-19T07:31:19;4.55;;;2.38;;
11839;SDS011;5979;50.800;4.904;2023-09-19T07:33:44;5.90;;;2.40;;
11839;SDS011;5979;50.800;4.904;2023-09-19T07:36:10;4.05;;;2.20;;
11839;SDS011;5979;50.800;4.904;2023-09-19T07:38:38;6.55;;;2.50;;
11839;SDS011;5979;50.800;4.904;2023-09-19T07:41:05;4.45;;;2.20;;
11839;SDS011;5979;50.800;4.904;2023-09-19T07:43:30;8.50;;;2.40;;
11839;SDS011;5979;50.800;4.904;2023-09-19T07:45:56;5.75;;;2.30;;
11839;SDS011;5979;50.800;4.904;2023-09-19T07:48:25;4.70;;;2.17;;
11839;SDS011;5979;50.800;4.904;2023-09-19T07:50:51;6.10;;;2.42;;
11839;SDS011;5979;50.800;4.904;2023-09-19T07:53:16;4.97;;;2.50;;
11839;SDS011;5979;50.800;4.904;2023-09-19T07:55:42;5.13;;;2.13;;
11839;SDS011;5979;50.800;4.904;2023-09-19T07:58:08;4.53;;;2.38;;
11839;SDS011;5979;50.800;4.904;2023-09-19T08:00:34;4.32;;;2.13;;
11839;SDS011;5979;50.800;4.904;2023-09-19T08:03:00;4.63;;;2.00;;
11839;SDS011;5979;50.800;4.904;2023-09-19T08:05:26;6.97;;;2.58;;
11839;SDS011;5979;50.800;4.904;2023-09-19T08:07:52;6.93;;;2.20;;
11839;SDS011;5979;50.800;4.904;2023-09-19T08:10:21;8.00;;;2.53;;
11839;SDS011;5979;50.800;4.904;2023-09-19T08:12:47;10.45;;;3.03;;
11839;SDS011;5979;50.800;4.904;2023-09-19T08:15:14;8.60;;;2.60;;
11839;SDS011;5979;50.800;4.904;2023-09-19T08:17:44;4.05;;;2.00;;
11839;SDS011;5979;50.800;4.904;2023-09-19T08:20:10;6.93;;;2.13;;
11839;SDS011;5979;50.800;4.904;2023-09-19T08:25:17;5.68;;;2.78;;
11839;SDS011;5979;50.800;4.904;2023-09-19T08:27:47;7.28;;;2.53;;
11839;SDS011;5979;50.800;4.904;2023-09-19T08:30:16;6.93;;;2.10;;
11839;SDS011;5979;50.800;4.904;2023-09-19T08:32:45;6.32;;;2.22;;
11839;SDS011;5979;50.800;4.904;2023-09-19T08:35:13;7.45;;;2.28;;
11839;SDS011;5979;50.800;4.904;2023-09-19T08:37:39;6.15;;;2.47;;
11839;SDS011;5979;50.800;4.904;2023-09-19T08:40:05;7.47;;;2.40;;
11839;SDS011;5979;50.800;4.904;2023-09-19T08:42:56;7.15;;;2.10;;
11839;SDS011;5979;50.800;4.904;2023-09-19T08:45:21;7.47;;;2.67;;
11839;SDS011;5979;50.800;4.904;2023-09-19T08:50:52;5.70;;;2.30;;
11839;SDS011;5979;50.800;4.904;2023-09-19T08:53:26;6.63;;;2.20;;
11839;SDS011;5979;50.800;4.904;2023-09-19T08:55:57;7.60;;;2.95;;
11839;SDS011;5979;50.800;4.904;2023-09-19T08:58:27;5.13;;;1.98;;
11839;SDS011;5979;50.800;4.904;2023-09-19T09:01:00;7.22;;;2.70;;
11839;SDS011;5979;50.800;4.904;2023-09-19T09:03:26;6.80;;;2.85;;
11839;SDS011;5979;50.800;4.904;2023-09-19T09:05:57;6.72;;;2.47;;
11839;SDS011;5979;50.800;4.904;2023-09-19T09:08:24;3.13;;;1.98;;
11839;SDS011;5979;50.800;4.904;2023-09-19T09:10:50;7.57;;;2.78;;
11839;SDS011;5979;50.800;4.904;2023-09-19T09:13:16;8.40;;;2.00;;
11839;SDS011;5979;50.800;4.904;2023-09-19T09:15:43;6.43;;;2.35;;
11839;SDS011;5979;50.800;4.904;2023-09-19T09:18:10;8.90;;;2.83;;
11839;SDS011;5979;50.800;4.904;2023-09-19T09:20:35;6.25;;;2.40;;
11839;SDS011;5979;50.800;4.904;2023-09-19T09:23:01;6.43;;;2.58;;
11839;SDS011;5979;50.800;4.904;2023-09-19T09:28:28;11.85;;;2.65;;
11839;SDS011;5979;50.800;4.904;2023-09-19T09:30:59;7.18;;;2.45;;
11839;SDS011;5979;50.800;4.904;2023-09-19T09:33:27;8.80;;;2.90;;
11839;SDS011;5979;50.800;4.904;2023-09-19T09:35:58;7.32;;;2.38;;
11839;SDS011;5979;50.800;4.904;2023-09-19T09:39:08;4.70;;;2.53;;
11839;SDS011;5979;50.800;4.904;2023-09-19T09:41:17;7.72;;;2.85;;
11839;SDS011;5979;50.800;4.904;2023-09-19T09:43:52;6.03;;;2.20;;
11839;SDS011;5979;50.800;4.904;2023-09-19T09:46:19;8.02;;;2.60;;
11839;SDS011;5979;50.800;4.904;2023-09-19T09:48:47;5.35;;;2.22;;
11839;SDS011;5979;50.800;4.904;2023-09-19T09:52:21;7.10;;;2.45;;
11839;SDS011;5979;50.800;4.904;2023-09-19T09:54:32;3.10;;;1.83;;
11839;SDS011;5979;50.800;4.904;2023-09-19T09:57:06;7.97;;;2.70;;
11839;SDS011;5979;50.800;4.904;2023-09-19T09:59:48;4.85;;;2.60;;
11839;SDS011;5979;50.800;4.904;2023-09-19T10:02:41;9.20;;;2.05;;
11839;SDS011;5979;50.800;4.904;2023-09-19T10:07:58;6.40;;;2.17;;
11839;SDS011;5979;50.800;4.904;2023-09-19T10:10:40;4.25;;;2.15;;
11839;SDS011;5979;50.800;4.904;2023-09-19T10:13:06;4.53;;;2.10;;
11839;SDS011;5979;50.800;4.904;2023-09-19T10:15:37;6.32;;;2.00;;
11839;SDS011;5979;50.800;4.904;2023-09-19T10:18:06;5.88;;;2.38;;
11839;SDS011;5979;50.800;4.904;2023-09-19T10:20:43;6.63;;;1.98;;
11839;SDS011;5979;50.800;4.904;2023-09-19T10:23:11;6.43;;;2.28;;
11839;SDS011;5979;50.800;4.904;2023-09-19T10:25:43;6.70;;;2.10;;
11839;SDS011;5979;50.800;4.904;2023-09-19T10:28:13;7.03;;;2.38;;
11839;SDS011;5979;50.800;4.904;2023-09-19T10:30:45;5.85;;;2.22;;
11839;SDS011;5979;50.800;4.904;2023-09-19T10:33:16;5.30;;;2.00;;
11839;SDS011;5979;50.800;4.904;2023-09-19T10:35:46;5.05;;;2.47;;
11839;SDS011;5979;50.800;4.904;2023-09-19T10:38:14;2.03;;;1.52;;
11839;SDS011;5979;50.800;4.904;2023-09-19T10:40:44;6.22;;;2.10;;
11839;SDS011;5979;50.800;4.904;2023-09-19T10:43:15;3.80;;;1.65;;
11839;SDS011;5979;50.800;4.904;2023-09-19T10:45:48;6.15;;;2.10;;
11839;SDS011;5979;50.800;4.904;2023-09-19T10:48:17;3.15;;;1.55;;
11839;SDS011;5979;50.800;4.904;2023-09-19T10:53:29;5.32;;;1.80;;
11839;SDS011;5979;50.800;4.904;2023-09-19T10:56:07;4.57;;;1.70;;
11839;SDS011;5979;50.800;4.904;2023-09-19T10:58:39;2.85;;;1.30;;
11839;SDS011;5979;50.800;4.904;2023-09-19T11:01:09;3.38;;;1.75;;
11839;SDS011;5979;50.800;4.904;2023-09-19T11:03:43;3.30;;;1.65;;
11839;SDS011;5979;50.800;4.904;2023-09-19T11:11:41;4.63;;;1.80;;
11839;SDS011;5979;50.800;4.904;2023-09-19T11:14:14;8.40;;;2.03;;
11839;SDS011;5979;50.800;4.904;2023-09-19T11:30:40;2.42;;;1.50;;
11839;SDS011;5979;50.800;4.904;2023-09-19T11:43:49;2.83;;;1.30;;
11839;SDS011;5979;50.800;4.904;2023-09-19T11:46:25;1.80;;;1.23;;
11839;SDS011;5979;50.800;4.904;2023-09-19T11:48:53;3.97;;;1.40;;
11839;SDS011;5979;50.800;4.904;2023-09-19T11:51:20;6.43;;;1.50;;
11839;SDS011;5979;50.800;4.904;2023-09-19T11:53:57;2.70;;;1.42;;
11839;SDS011;5979;50.800;4.904;2023-09-19T11:56:26;1.23;;;1.10;;
11839;SDS011;5979;50.800;4.904;2023-09-19T11:58:57;2.10;;;1.25;;
11839;SDS011;5979;50.800;4.904;2023-09-19T12:03:54;2.45;;;1.20;;
11839;SDS011;5979;50.800;4.904;2023-09-19T12:06:25;2.78;;;1.40;;
11839;SDS011;5979;50.800;4.904;2023-09-19T12:08:52;5.07;;;1.23;;
11839;SDS011;5979;50.800;4.904;2023-09-19T12:11:19;2.78;;;1.10;;
11839;SDS011;5979;50.800;4.904;2023-09-19T12:13:48;3.83;;;1.38;;
11839;SDS011;5979;50.800;4.904;2023-09-19T12:16:18;3.35;;;1.10;;
11839;SDS011;5979;50.800;4.904;2023-09-19T12:18:48;2.00;;;1.30;;
11839;SDS011;5979;50.800;4.904;2023-09-19T12:24:11;3.03;;;1.15;;
11839;SDS011;5979;50.800;4.904;2023-09-19T12:26:45;2.53;;;1.38;;
11839;SDS011;5979;50.800;4.904;2023-09-19T12:29:18;1.08;;;0.90;;
11839;SDS011;5979;50.800;4.904;2023-09-19T12:31:54;3.28;;;1.50;;
11839;SDS011;5979;50.800;4.904;2023-09-19T12:34:24;1.85;;;1.13;;
11839;SDS011;5979;50.800;4.904;2023-09-19T12:37:04;3.40;;;1.20;;
11839;SDS011;5979;50.800;4.904;2023-09-19T12:40:04;5.40;;;1.15;;
11839;SDS011;5979;50.800;4.904;2023-09-19T12:42:46;2.10;;;1.30;;
11839;SDS011;5979;50.800;4.904;2023-09-19T12:45:12;4.78;;;1.38;;
11839;SDS011;5979;50.800;4.904;2023-09-19T12:47:40;3.33;;;0.90;;
11839;SDS011;5979;50.800;4.904;2023-09-19T12:50:26;3.03;;;1.35;;
11839;SDS011;5979;50.800;4.904;2023-09-19T12:52:54;5.30;;;1.40;;
11839;SDS011;5979;50.800;4.904;2023-09-19T12:55:25;2.60;;;1.38;;
11839;SDS011;5979;50.800;4.904;2023-09-19T12:58:13;2.60;;;1.10;;
11839;SDS011;5979;50.800;4.904;2023-09-19T13:00:44;3.05;;;1.33;;
11839;SDS011;5979;50.800;4.904;2023-09-19T13:05:56;3.45;;;1.10;;
11839;SDS011;5979;50.800;4.904;2023-09-19T13:08:25;2.75;;;1.13;;
11839;SDS011;5979;50.800;4.904;2023-09-19T13:16:10;2.42;;;1.10;;
11839;SDS011;5979;50.800;4.904;2023-09-19T13:18:55;2.08;;;1.38;;
11839;SDS011;5979;50.800;4.904;2023-09-19T13:21:28;2.17;;;1.05;;
11839;SDS011;5979;50.800;4.904;2023-09-19T13:24:17;2.33;;;1.23;;
11839;SDS011;5979;50.800;4.904;2023-09-19T13:26:48;2.67;;;1.10;;
11839;SDS011;5979;50.800;4.904;2023-09-19T13:29:14;5.05;;;1.50;;
11839;SDS011;5979;50.800;4.904;2023-09-19T13:31:52;1.48;;;1.10;;
11839;SDS011;5979;50.800;4.904;2023-09-19T13:34:18;3.20;;;1.55;;
11839;SDS011;5979;50.800;4.904;2023-09-19T13:36:45;3.00;;;1.30;;
11839;SDS011;5979;50.800;4.904;2023-09-19T13:39:13;2.53;;;1.50;;
11839;SDS011;5979;50.800;4.904;2023-09-19T13:41:41;4.20;;;1.35;;
11839;SDS011;5979;50.800;4.904;2023-09-19T13:44:07;2.00;;;1.33;;
11839;SDS011;5979;50.800;4.904;2023-09-19T13:46:35;1.83;;;1.05;;
11839;SDS011;5979;50.800;4.904;2023-09-19T13:49:02;4.60;;;1.30;;
11839;SDS011;5979;50.800;4.904;2023-09-19T13:51:31;2.50;;;1.17;;
11839;SDS011;5979;50.800;4.904;2023-09-19T13:53:57;2.67;;;1.30;;
11839;SDS011;5979;50.800;4.904;2023-09-19T13:56:24;1.95;;;1.05;;
11839;SDS011;5979;50.800;4.904;2023-09-19T13:58:52;3.40;;;1.30;;
11839;SDS011;5979;50.800;4.904;2023-09-19T14:01:18;5.78;;;1.30;;
11839;SDS011;5979;50.800;4.904;2023-09-19T14:03:44;3.55;;;1.73;;
11839;SDS011;5979;50.800;4.904;2023-09-19T14:06:12;2.05;;;1.08;;
11839;SDS011;5979;50.800;4.904;2023-09-19T14:08:38;3.33;;;1.20;;
11839;SDS011;5979;50.800;4.904;2023-09-19T14:11:07;3.88;;;1.20;;
11839;SDS011;5979;50.800;4.904;2023-09-19T14:13:33;2.63;;;1.10;;
11839;SDS011;5979;50.800;4.904;2023-09-19T14:16:03;2.53;;;1.20;;
11839;SDS011;5979;50.800;4.904;2023-09-19T14:18:30;2.15;;;1.20;;
11839;SDS011;5979;50.800;4.904;2023-09-19T14:20:56;2.25;;;1.00;;
11839;SDS011;5979;50.800;4.904;2023-09-19T14:23:22;3.13;;;1.40;;
11839;SDS011;5979;50.800;4.904;2023-09-19T14:25:48;4.72;;;1.30;;
11839;SDS011;5979;50.800;4.904;2023-09-19T14:28:16;2.60;;;1.35;;
11839;SDS011;5979;50.800;4.904;2023-09-19T14:30:43;2.70;;;1.40;;
11839;SDS011;5979;50.800;4.904;2023-09-19T14:33:09;2.42;;;1.20;;
11839;SDS011;5979;50.800;4.904;2023-09-19T14:35:36;3.08;;;1.38;;
11839;SDS011;5979;50.800;4.904;2023-09-19T14:38:03;4.43;;;1.33;;
11839;SDS011;5979;50.800;4.904;2023-09-19T14:40:29;1.20;;;1.08;;
11839;SDS011;5979;50.800;4.904;2023-09-19T14:42:54;4.80;;;1.50;;
11839;SDS011;5979;50.800;4.904;2023-09-19T14:45:20;3.03;;;1.27;;
11839;SDS011;5979;50.800;4.904;2023-09-19T14:47:46;4.88;;;1.42;;
11839;SDS011;5979;50.800;4.904;2023-09-19T14:50:12;2.30;;;1.20;;
11839;SDS011;5979;50.800;4.904;2023-09-19T14:52:38;3.75;;;1.50;;
11839;SDS011;5979;50.800;4.904;2023-09-19T14:55:05;1.48;;;1.38;;
11839;SDS011;5979;50.800;4.904;2023-09-19T14:57:31;3.28;;;1.45;;
11839;SDS011;5979;50.800;4.904;2023-09-19T14:59:57;3.45;;;1.80;;
11839;SDS011;5979;50.800;4.904;2023-09-19T15:02:23;3.25;;;1.45;;
11839;SDS011;5979;50.800;4.904;2023-09-19T15:04:49;4.78;;;1.52;;
11839;SDS011;5979;50.800;4.904;2023-09-19T15:07:16;4.38;;;1.30;;
11839;SDS011;5979;50.800;4.904;2023-09-19T15:09:42;2.20;;;1.30;;
11839;SDS011;5979;50.800;4.904;2023-09-19T15:12:08;3.08;;;1.45;;
11839;SDS011;5979;50.800;4.904;2023-09-19T15:14:36;1.33;;;1.23;;
11839;SDS011;5979;50.800;4.904;2023-09-19T15:17:02;3.55;;;1.50;;
11839;SDS011;5979;50.800;4.904;2023-09-19T15:19:29;9.65;;;1.40;;
11839;SDS011;5979;50.800;4.904;2023-09-19T15:21:55;4.55;;;1.48;;
11839;SDS011;5979;50.800;4.904;2023-09-19T15:24:22;5.00;;;1.92;;
11839;SDS011;5979;50.800;4.904;2023-09-19T15:26:48;7.40;;;1.65;;
11839;SDS011;5979;50.800;4.904;2023-09-19T15:29:15;3.47;;;1.60;;
11839;SDS011;5979;50.800;4.904;2023-09-19T15:31:41;4.13;;;1.65;;
11839;SDS011;5979;50.800;4.904;2023-09-19T15:34:06;1.92;;;1.67;;
11839;SDS011;5979;50.800;4.904;2023-09-19T15:36:32;2.33;;;1.50;;
11839;SDS011;5979;50.800;4.904;2023-09-19T15:39:05;3.55;;;1.58;;
11839;SDS011;5979;50.800;4.904;2023-09-19T15:41:34;3.70;;;1.75;;
11839;SDS011;5979;50.800;4.904;2023-09-19T15:44:04;3.75;;;1.52;;
11839;SDS011;5979;50.800;4.904;2023-09-19T15:46:35;2.75;;;1.50;;
11839;SDS011;5979;50.800;4.904;2023-09-19T15:49:02;3.05;;;1.30;;
11839;SDS011;5979;50.800;4.904;2023-09-19T15:51:28;5.45;;;1.30;;
11839;SDS011;5979;50.800;4.904;2023-09-19T15:53:54;2.25;;;1.50;;
11839;SDS011;5979;50.800;4.904;2023-09-19T15:56:21;3.38;;;1.77;;
11839;SDS011;5979;50.800;4.904;2023-09-19T15:58:49;2.53;;;1.45;;
11839;SDS011;5979;50.800;4.904;2023-09-19T16:01:16;3.40;;;1.40;;
11839;SDS011;5979;50.800;4.904;2023-09-19T16:03:43;2.25;;;1.63;;
11839;SDS011;5979;50.800;4.904;2023-09-19T16:06:12;2.40;;;1.50;;
11839;SDS011;5979;50.800;4.904;2023-09-19T16:11:06;2.60;;;1.38;;
11839;SDS011;5979;50.800;4.904;2023-09-19T16:13:33;1.60;;;1.50;;
11839;SDS011;5979;50.800;4.904;2023-09-19T16:15:58;4.25;;;1.95;;
11839;SDS011;5979;50.800;4.904;2023-09-19T16:18:24;2.13;;;1.48;;
11839;SDS011;5979;50.800;4.904;2023-09-19T16:20:50;3.67;;;1.35;;
11839;SDS011;5979;50.800;4.904;2023-09-19T16:23:15;2.50;;;1.60;;
11839;SDS011;5979;50.800;4.904;2023-09-19T16:25:41;3.28;;;1.67;;